Time;durP1;ratioP1;P1;durP2;ratioP2;P2;SDS_P1;SDS_P2;PMS_P1;PMS_P2;Temp;Humidity;BMP_temperature;BMP_pressure;BME280_temperature;BME280_humidity;BME280_pressure;Samples;Min_cycle;Max_cycle;Signal;HPM_P1;HPM_P2
2023/09/17 00:02:08;;;;;;;5.68;2.03;;;;;;;15.30;100.00;95969.59;4982524;28;20033;-67
2023/09/17 00:04:33;;;;;;;4.28;2.10;;;;;;;15.27;100.00;95972.59;4993021;28;20038;-67
2023/09/17 00:06:59;;;;;;;3.13;2.30;;;;;;;15.28;100.00;95974.25;4986216;28;20037;-67
2023/09/17 00:09:24;;;;;;;4.88;2.10;;;;;;;15.31;100.00;95973.06;4985176;28;20027;-67
2023/09/17 00:11:49;;;;;;;2.25;2.10;;;;;;;15.31;100.00;95968.59;4998669;28;20020;-67
2023/09/17 00:14:15;;;;;;;3.15;1.80;;;;;;;15.30;100.00;95968.75;5031382;28;20644;-67
2023/09/17 00:16:40;;;;;;;3.95;1.83;;;;;;;15.27;100.00;95959.31;4991191;28;20647;-67
2023/09/17 00:19:06;;;;;;;7.03;3.15;;;;;;;15.27;100.00;95961.97;4992842;28;20062;-67
2023/09/17 00:21:31;;;;;;;2.08;1.90;;;;;;;15.28;100.00;95960.13;4992887;28;20038;-67
2023/09/17 00:23:57;;;;;;;2.10;1.90;;;;;;;15.27;100.00;95958.47;4991056;28;20030;-68
2023/09/17 00:26:22;;;;;;;2.90;1.90;;;;;;;15.27;100.00;95953.19;5016025;28;20024;-67
2023/09/17 00:28:49;;;;;;;6.65;2.10;;;;;;;15.25;100.00;95952.50;4991249;28;20034;-67
2023/09/17 00:31:15;;;;;;;5.18;1.85;;;;;;;15.25;100.00;95958.66;4987664;28;20019;-68
2023/09/17 00:33:40;;;;;;;4.25;2.45;;;;;;;15.24;100.00;95962.28;4975250;28;20023;-67
2023/09/17 00:36:06;;;;;;;3.90;2.40;;;;;;;15.25;100.00;95957.81;4985878;28;20015;-67
2023/09/17 00:38:31;;;;;;;6.10;2.30;;;;;;;15.18;100.00;95952.34;4973502;28;20027;-67
2023/09/17 00:40:56;;;;;;;6.95;2.10;;;;;;;15.13;100.00;95952.81;4974872;28;20066;-68
2023/09/17 00:43:22;;;;;;;2.42;2.00;;;;;;;15.07;100.00;95956.13;4973097;28;20029;-68
2023/09/17 00:45:47;;;;;;;6.75;2.45;;;;;;;15.02;100.00;95948.66;4986560;28;20051;-68
2023/09/17 00:48:13;;;;;;;4.53;2.10;;;;;;;14.94;100.00;95947.84;4983842;28;20030;-69
2023/09/17 00:50:39;;;;;;;4.07;2.17;;;;;;;14.91;100.00;95967.56;4971530;28;20023;-67
2023/09/17 00:53:05;;;;;;;4.05;2.20;;;;;;;14.89;100.00;95961.59;4992309;28;20033;-67
2023/09/17 00:55:30;;;;;;;3.95;1.90;;;;;;;14.87;100.00;95948.47;4989643;28;20034;-67
2023/09/17 00:57:57;;;;;;;2.22;2.03;;;;;;;14.90;100.00;95964.06;4977784;28;20125;-69
2023/09/17 01:00:24;;;;;;;8.07;2.67;;;;;;;14.86;100.00;95969.88;4986560;28;20030;-70
2023/09/17 01:02:50;;;;;;;4.43;2.13;;;;;;;14.79;100.00;95961.72;4986141;28;20065;-68
2023/09/17 01:05:17;;;;;;;3.92;2.08;;;;;;;14.74;100.00;95964.84;4986996;28;20042;-69
2023/09/17 01:07:44;;;;;;;4.18;1.92;;;;;;;14.75;100.00;95966.50;4992254;28;20469;-69
2023/09/17 01:10:11;;;;;;;6.50;2.22;;;;;;;14.76;100.00;95962.06;4985389;28;20034;-67
2023/09/17 01:12:38;;;;;;;3.63;2.10;;;;;;;14.75;100.00;95961.22;5000478;28;20063;-69
2023/09/17 01:15:06;;;;;;;7.03;2.47;;;;;;;14.71;100.00;95965.19;4989828;28;20113;-67
2023/09/17 01:17:32;;;;;;;7.80;2.13;;;;;;;14.68;100.00;95961.97;4975930;28;20037;-67
2023/09/17 01:19:57;;;;;;;3.75;2.42;;;;;;;14.65;100.00;95955.19;4990791;28;20022;-67
2023/09/17 01:22:38;;;;;;;7.47;2.70;;;;;;;14.66;100.00;95948.06;4986842;28;20023;-69
2023/09/17 01:25:06;;;;;;;4.15;2.30;;;;;;;14.63;100.00;95949.22;4982342;28;20022;-67
2023/09/17 01:27:35;;;;;;;3.85;2.30;;;;;;;14.64;100.00;95939.44;4988981;28;20034;-69
2023/09/17 01:30:03;;;;;;;4.72;2.30;;;;;;;14.70;100.00;95926.38;4980373;28;20442;-67
2023/09/17 01:32:28;;;;;;;3.35;1.83;;;;;;;14.68;100.00;95935.47;4982328;28;20022;-66
2023/09/17 01:34:54;;;;;;;3.28;2.10;;;;;;;14.71;100.00;95936.03;5002871;28;20097;-67
2023/09/17 01:37:34;;;;;;;3.13;2.13;;;;;;;14.71;100.00;95932.56;5000849;28;20099;-67
2023/09/17 01:40:05;;;;;;;4.22;2.35;;;;;;;14.75;100.00;95928.59;4984018;28;20045;-70
2023/09/17 01:42:31;;;;;;;3.33;2.00;;;;;;;14.68;100.00;95931.03;4989762;28;20033;-69
2023/09/17 01:44:59;;;;;;;3.10;2.00;;;;;;;14.70;100.00;95929.03;4990597;28;20050;-69
2023/09/17 01:47:26;;;;;;;4.00;2.30;;;;;;;14.71;100.00;95940.50;4973527;28;20506;-69
2023/09/17 01:49:55;;;;;;;4.25;2.30;;;;;;;14.68;100.00;95930.19;4979819;28;20128;-66
2023/09/17 01:52:25;;;;;;;3.83;2.20;;;;;;;14.65;100.00;95949.06;4988958;28;20034;-69
2023/09/17 01:54:50;;;;;;;4.38;2.30;;;;;;;14.59;100.00;95930.16;4978156;28;20033;-69
2023/09/17 01:57:15;;;;;;;5.68;2.10;;;;;;;14.56;100.00;95933.16;4985314;28;20023;-69
2023/09/17 01:59:41;;;;;;;4.93;2.40;;;;;;;14.56;100.00;95922.56;4985085;28;20503;-69
2023/09/17 02:02:06;;;;;;;4.97;2.40;;;;;;;14.58;100.00;95927.66;4987840;28;20053;-69
2023/09/17 02:04:32;;;;;;;5.57;2.38;;;;;;;14.55;100.00;95934.13;4981307;28;20019;-68
2023/09/17 02:06:57;;;;;;;6.65;4.65;;;;;;;14.49;100.00;95937.44;5019434;28;20028;-68
2023/09/17 02:09:22;;;;;;;3.70;2.90;;;;;;;14.49;100.00;95928.66;4987310;28;20018;-69
2023/09/17 02:11:49;;;;;;;14.50;13.00;;;;;;;14.46;100.00;95922.69;4992195;28;20026;-68
2023/09/17 02:14:15;;;;;;;6.82;3.85;;;;;;;14.48;100.00;95925.19;4985806;28;20134;-68
2023/09/17 02:16:41;;;;;;;3.35;2.72;;;;;;;14.49;100.00;95926.84;4985426;28;20026;-68
2023/09/17 02:19:09;;;;;;;7.25;2.50;;;;;;;14.46;100.00;95924.50;4986863;28;20114;-68
2023/09/17 02:21:35;;;;;;;5.50;2.30;;;;;;;14.42;100.00;95931.94;4990868;28;20349;-68
2023/09/17 02:24:00;;;;;;;5.40;2.78;;;;;;;14.44;100.00;95924.66;4991688;28;20030;-68
2023/09/17 02:26:26;;;;;;;5.53;2.78;;;;;;;14.44;100.00;95921.16;4995920;28;20018;-69
2023/09/17 02:28:51;;;;;;;5.78;3.20;;;;;;;14.45;100.00;95922.84;4992962;28;20027;-68
2023/09/17 02:31:17;;;;;;;8.43;3.22;;;;;;;14.43;100.00;95924.81;4989400;28;20125;-68
2023/09/17 02:33:43;;;;;;;4.03;2.58;;;;;;;14.41;100.00;95925.00;4989639;28;20106;-68
2023/09/17 02:36:08;;;;;;;5.47;2.83;;;;;;;14.42;100.00;95917.84;4992605;28;20070;-68
2023/09/17 02:38:34;;;;;;;4.18;2.63;;;;;;;14.41;100.00;95921.50;4983882;28;20615;-68
2023/09/17 02:40:59;;;;;;;5.50;2.90;;;;;;;14.38;100.00;95913.88;4980689;28;20101;-68
2023/09/17 02:43:29;;;;;;;5.95;2.65;;;;;;;14.37;100.00;95906.91;4988113;28;20034;-69
2023/09/17 02:45:55;;;;;;;6.70;2.90;;;;;;;14.38;100.00;95903.28;4991073;28;20543;-68
2023/09/17 02:48:21;;;;;;;4.47;2.70;;;;;;;14.35;100.00;95903.59;4991118;28;20026;-68
2023/09/17 02:50:46;;;;;;;4.85;2.58;;;;;;;14.31;100.00;95896.00;4992897;28;20114;-68
2023/09/17 02:53:12;;;;;;;3.20;2.22;;;;;;;14.28;100.00;95898.97;4980768;28;20057;-68
2023/09/17 02:55:37;;;;;;;5.20;3.00;;;;;;;14.26;100.00;95898.28;4985255;28;20034;-69
2023/09/17 02:58:03;;;;;;;5.10;2.80;;;;;;;14.24;100.00;95894.94;4988572;28;20019;-68
2023/09/17 03:00:35;;;;;;;6.00;2.92;;;;;;;14.20;100.00;95901.56;4989467;28;20031;-68
2023/09/17 03:03:01;;;;;;;6.55;2.70;;;;;;;14.17;100.00;95893.94;4996328;28;20018;-68
2023/09/17 03:05:26;;;;;;;3.90;2.47;;;;;;;14.12;100.00;95888.31;5038040;28;20099;-68
2023/09/17 03:07:53;;;;;;;4.07;2.60;;;;;;;14.10;100.00;95895.56;4988231;28;20023;-68
2023/09/17 03:10:20;;;;;;;5.68;2.75;;;;;;;14.09;100.00;95892.09;4995539;28;20058;-68
2023/09/17 03:12:46;;;;;;;5.40;2.80;;;;;;;14.09;100.00;95884.13;4988768;28;20022;-68
2023/09/17 03:15:12;;;;;;;5.40;2.50;;;;;;;14.07;100.00;95894.06;4992277;28;20030;-69
2023/09/17 03:17:43;;;;;;;8.73;3.22;;;;;;;14.03;100.00;95877.66;4973471;28;20046;-68
2023/09/17 03:20:22;;;;;;;3.10;2.80;;;;;;;14.00;100.00;95883.28;4986557;28;20480;-68
2023/09/17 03:22:48;;;;;;;7.32;3.08;;;;;;;13.91;100.00;95873.66;4987480;28;20041;-68
2023/09/17 03:25:14;;;;;;;4.55;2.30;;;;;;;13.92;100.00;95869.16;4988624;28;20050;-68
2023/09/17 03:27:43;;;;;;;6.38;2.95;;;;;;;13.88;100.00;95876.63;4995141;28;20025;-68
2023/09/17 03:30:09;;;;;;;6.38;2.72;;;;;;;13.90;100.00;95867.50;4988006;28;20034;-68
2023/09/17 03:32:35;;;;;;;5.10;3.72;;;;;;;13.88;100.00;95871.31;4988552;28;21711;-69
2023/09/17 03:35:01;;;;;;;5.40;3.35;;;;;;;13.87;100.00;95865.19;4993404;28;20522;-68
2023/09/17 03:37:26;;;;;;;5.75;2.85;;;;;;;13.88;100.00;95858.09;4987079;28;20043;-68
2023/09/17 03:40:11;;;;;;;7.13;3.15;;;;;;;13.87;100.00;95859.06;4980327;28;20023;-68
2023/09/17 03:42:41;;;;;;;6.03;3.17;;;;;;;13.86;100.00;95855.59;4985247;28;20520;-68
2023/09/17 03:45:09;;;;;;;7.55;3.10;;;;;;;13.82;100.00;95850.78;4974634;28;20073;-68
2023/09/17 03:47:38;;;;;;;8.48;3.13;;;;;;;13.80;100.00;95860.69;4978311;28;20030;-68
2023/09/17 03:50:04;;;;;;;3.28;2.90;;;;;;;13.77;100.00;95855.72;4980137;28;20475;-68
2023/09/17 03:52:31;;;;;;;6.07;3.05;;;;;;;13.78;100.00;95866.16;5001232;28;20064;-68
2023/09/17 03:54:57;;;;;;;5.07;3.30;;;;;;;13.81;100.00;95864.97;5010369;28;20035;-68
2023/09/17 03:57:23;;;;;;;7.28;3.03;;;;;;;13.78;100.00;95857.38;4985324;28;20081;-69
2023/09/17 03:59:48;;;;;;;3.42;3.13;;;;;;;13.77;100.00;95866.28;5036555;28;20481;-68
2023/09/17 04:02:14;;;;;;;5.30;3.10;;;;;;;13.76;100.00;95865.47;4981699;28;20029;-68
2023/09/17 04:04:40;;;;;;;7.28;3.20;;;;;;;13.75;100.00;95863.81;4987578;28;20080;-68
2023/09/17 04:07:05;;;;;;;7.30;3.45;;;;;;;13.78;100.00;95870.59;4993008;28;20098;-68
2023/09/17 04:09:31;;;;;;;6.20;3.00;;;;;;;13.76;100.00;95868.13;4988193;28;20041;-69
2023/09/17 04:12:03;;;;;;;5.38;3.03;;;;;;;13.70;100.00;95866.94;4983807;28;20113;-68
2023/09/17 04:14:31;;;;;;;9.65;3.25;;;;;;;13.68;100.00;95866.25;4980345;28;20034;-68
2023/09/17 04:16:59;;;;;;;5.18;3.20;;;;;;;13.65;100.00;95871.88;4990395;28;20053;-68
2023/09/17 04:19:24;;;;;;;4.35;2.70;;;;;;;13.64;100.00;95870.22;4990788;28;20121;-68
2023/09/17 04:21:50;;;;;;;5.63;3.08;;;;;;;13.61;100.00;95859.94;4992089;28;20568;-68
2023/09/17 04:24:16;;;;;;;5.28;3.08;;;;;;;13.60;100.00;95868.88;4991399;28;20024;-68
2023/09/17 04:26:44;;;;;;;6.00;2.97;;;;;;;13.58;100.00;95870.81;4993292;28;20060;-69
2023/09/17 04:29:10;;;;;;;5.15;3.53;;;;;;;13.56;100.00;95876.28;4980117;28;20022;-68
2023/09/17 04:31:35;;;;;;;9.52;3.55;;;;;;;13.51;100.00;95875.06;4982875;28;20584;-69
2023/09/17 04:34:01;;;;;;;7.72;3.70;;;;;;;13.48;100.00;95870.91;4986568;28;20118;-68
2023/09/17 04:36:26;;;;;;;6.43;3.55;;;;;;;13.49;100.00;95866.47;4974035;28;20384;-69
2023/09/17 04:38:52;;;;;;;5.65;3.30;;;;;;;13.43;100.00;95852.91;4976785;28;20150;-68
2023/09/17 04:41:18;;;;;;;6.57;3.67;;;;;;;13.39;100.00;95862.09;4988072;28;20108;-69
2023/09/17 04:43:43;;;;;;;7.45;3.60;;;;;;;13.40;100.00;95857.63;5012273;28;20030;-69
2023/09/17 04:46:09;;;;;;;6.50;3.75;;;;;;;13.44;100.00;95854.56;4986321;28;20050;-69
2023/09/17 04:48:34;;;;;;;5.93;3.35;;;;;;;13.44;100.00;95854.56;4989732;28;20043;-69
2023/09/17 04:50:59;;;;;;;8.27;4.07;;;;;;;13.46;100.00;95859.66;4981433;28;20692;-69
2023/09/17 04:53:25;;;;;;;5.05;3.60;;;;;;;13.45;100.00;95850.06;4989163;28;20053;-69
2023/09/17 04:55:50;;;;;;;9.50;4.00;;;;;;;13.44;100.00;95843.97;4983243;28;20514;-69
2023/09/17 04:58:17;;;;;;;6.13;3.70;;;;;;;13.39;100.00;95851.53;4982537;28;20026;-68
2023/09/17 05:00:44;;;;;;;8.05;4.03;;;;;;;13.38;100.00;95854.31;4980155;28;20122;-68
2023/09/17 05:03:11;;;;;;;5.95;3.67;;;;;;;13.38;100.00;95855.16;4989375;28;20026;-68
2023/09/17 05:05:37;;;;;;;9.00;3.88;;;;;;;13.40;100.00;95853.19;4991810;28;20022;-68
2023/09/17 05:08:03;;;;;;;8.50;4.55;;;;;;;13.39;100.00;95843.59;4990884;28;20030;-68
2023/09/17 05:10:28;;;;;;;7.68;3.85;;;;;;;13.36;100.00;95848.34;4978869;28;20548;-68
2023/09/17 05:12:54;;;;;;;4.07;3.70;;;;;;;13.28;100.00;95851.75;4987508;28;20388;-69
2023/09/17 05:15:19;;;;;;;7.18;4.35;;;;;;;13.30;100.00;95850.63;4987297;28;20025;-68
2023/09/17 05:17:46;;;;;;;7.50;4.10;;;;;;;13.33;100.00;95852.13;4988008;28;20564;-68
2023/09/17 05:20:12;;;;;;;7.43;4.30;;;;;;;13.32;100.00;95861.03;4987432;28;20023;-68
2023/09/17 05:22:37;;;;;;;10.48;4.18;;;;;;;13.31;100.00;95856.75;4984749;28;20567;-68
2023/09/17 05:25:04;;;;;;;8.15;4.25;;;;;;;13.32;100.00;95855.75;4994232;28;20029;-68
2023/09/17 05:27:29;;;;;;;6.07;4.10;;;;;;;13.33;100.00;95849.47;4993268;28;20014;-68
2023/09/17 05:29:55;;;;;;;7.45;4.15;;;;;;;13.26;100.00;95843.16;4984155;28;20483;-68
2023/09/17 05:32:20;;;;;;;9.55;4.35;;;;;;;13.24;100.00;95842.50;4975912;28;20039;-68
2023/09/17 05:34:45;;;;;;;7.70;4.07;;;;;;;13.27;100.00;95840.38;4977400;28;20023;-68
2023/09/17 05:37:11;;;;;;;12.10;3.88;;;;;;;13.33;100.00;95846.84;4972496;28;20030;-68
2023/09/17 05:39:37;;;;;;;9.10;4.13;;;;;;;13.39;100.00;95848.03;4987389;28;20031;-68
2023/09/17 05:42:03;;;;;;;8.70;4.00;;;;;;;13.42;100.00;95845.06;4991659;28;20022;-69
2023/09/17 05:44:28;;;;;;;8.70;4.15;;;;;;;13.43;100.00;95834.38;4989939;28;20038;-68
2023/09/17 05:46:53;;;;;;;16.42;4.72;;;;;;;13.48;100.00;95839.19;4973075;28;20023;-68
2023/09/17 05:49:19;;;;;;;6.40;3.88;;;;;;;13.49;100.00;95840.88;5064037;28;20024;-68
2023/09/17 05:51:44;;;;;;;6.03;3.95;;;;;;;13.55;100.00;95840.22;5030933;28;20399;-69
2023/09/17 05:54:10;;;;;;;7.07;4.00;;;;;;;13.60;100.00;95832.66;4988854;28;20022;-68
2023/09/17 05:56:35;;;;;;;8.70;4.03;;;;;;;13.63;100.00;95838.59;4969328;28;20065;-68
2023/09/17 05:59:01;;;;;;;6.95;4.03;;;;;;;13.64;100.00;95841.09;4981327;28;20026;-68
2023/09/17 06:01:26;;;;;;;10.18;4.22;;;;;;;13.67;100.00;95835.50;4986702;28;20023;-69
2023/09/17 06:03:51;;;;;;;6.90;4.07;;;;;;;13.73;100.00;95850.72;4984649;28;20044;-69
2023/09/17 06:06:17;;;;;;;7.70;4.22;;;;;;;13.81;100.00;95849.09;4992290;28;20094;-68
2023/09/17 06:08:42;;;;;;;10.35;4.47;;;;;;;13.85;100.00;95848.63;4982061;28;20022;-68
2023/09/17 06:11:08;;;;;;;9.70;4.60;;;;;;;13.93;100.00;95853.16;4978608;28;20043;-69
2023/09/17 06:13:33;;;;;;;5.60;4.18;;;;;;;13.97;100.00;95857.13;5029150;28;20015;-68
2023/09/17 06:15:59;;;;;;;9.88;4.93;;;;;;;14.02;100.00;95868.06;4975325;28;20023;-68
2023/09/17 06:18:25;;;;;;;8.70;4.10;;;;;;;14.07;100.00;95864.13;4980856;28;20054;-68
2023/09/17 06:20:51;;;;;;;7.18;3.70;;;;;;;14.18;100.00;95863.81;4982368;28;20030;-68
2023/09/17 06:23:16;;;;;;;8.13;4.20;;;;;;;14.29;100.00;95857.41;4977380;28;20022;-68
2023/09/17 06:25:42;;;;;;;9.13;4.50;;;;;;;14.39;100.00;95857.28;4988349;28;20030;-68
2023/09/17 06:28:08;;;;;;;9.70;4.55;;;;;;;14.43;100.00;95863.91;4993393;28;20031;-68
2023/09/17 06:30:33;;;;;;;7.32;4.38;;;;;;;14.53;100.00;95861.09;4978700;28;20039;-68
2023/09/17 06:32:59;;;;;;;5.68;3.90;;;;;;;14.54;100.00;95870.72;4984364;28;20038;-68
2023/09/17 06:35:24;;;;;;;9.98;4.00;;;;;;;14.54;100.00;95871.56;4984906;28;20104;-68
2023/09/17 06:37:50;;;;;;;7.68;4.68;;;;;;;14.58;100.00;95867.56;4990846;28;20034;-68
2023/09/17 06:40:17;;;;;;;12.98;4.97;;;;;;;14.57;100.00;95873.03;4978416;28;20090;-68
2023/09/17 06:42:42;;;;;;;10.80;4.65;;;;;;;14.63;100.00;95877.69;4974484;28;20038;-68
2023/09/17 06:45:08;;;;;;;10.65;4.35;;;;;;;14.66;100.00;95871.22;4990047;28;20058;-68
2023/09/17 06:47:34;;;;;;;10.85;4.68;;;;;;;14.69;100.00;95885.00;4989181;28;20022;-68
2023/09/17 06:50:00;;;;;;;14.00;4.18;;;;;;;14.80;100.00;95886.53;4991179;28;20034;-68
2023/09/17 06:52:27;;;;;;;10.90;4.22;;;;;;;14.90;100.00;95881.88;4975217;28;20034;-68
2023/09/17 06:54:52;;;;;;;11.30;4.05;;;;;;;15.01;100.00;95882.56;4972421;28;20034;-68
2023/09/17 06:57:18;;;;;;;10.23;4.38;;;;;;;15.09;100.00;95871.16;4979561;28;20081;-68
2023/09/17 06:59:43;;;;;;;8.02;4.20;;;;;;;15.20;100.00;95869.97;4972616;28;20518;-68
2023/09/17 07:02:09;;;;;;;10.55;4.20;;;;;;;15.30;100.00;95866.16;4988180;28;20031;-68
2023/09/17 07:04:34;;;;;;;8.75;4.40;;;;;;;15.42;100.00;95864.00;4989206;28;20030;-68
2023/09/17 07:07:00;;;;;;;10.57;3.83;;;;;;;15.53;100.00;95878.72;4982160;28;20015;-68
2023/09/17 07:09:28;;;;;;;9.35;4.28;;;;;;;15.74;100.00;95869.41;4980933;28;20026;-68
2023/09/17 07:11:53;;;;;;;13.38;4.72;;;;;;;15.90;100.00;95871.22;4986632;28;20046;-68
2023/09/17 07:14:19;;;;;;;7.25;4.07;;;;;;;16.10;100.00;95882.25;4986792;28;20395;-68
2023/09/17 07:16:44;;;;;;;11.90;4.32;;;;;;;16.22;100.00;95884.53;4983855;28;20030;-68
2023/09/17 07:19:10;;;;;;;8.05;3.75;;;;;;;16.23;100.00;95884.34;4983639;28;20011;-67
2023/09/17 07:21:35;;;;;;;9.15;3.70;;;;;;;16.22;100.00;95900.47;4991866;28;20026;-66
2023/09/17 07:24:01;;;;;;;10.65;3.97;;;;;;;16.29;100.00;95907.59;4991331;28;20031;-67
2023/09/17 07:26:27;;;;;;;6.22;3.92;;;;;;;16.46;100.00;95911.00;4997404;28;20108;-68
2023/09/17 07:28:52;;;;;;;9.02;4.00;;;;;;;16.61;100.00;95916.38;4988218;28;20478;-67
2023/09/17 07:31:18;;;;;;;9.10;3.70;;;;;;;16.73;100.00;95930.13;4988423;28;20383;-67
2023/09/17 07:33:44;;;;;;;11.55;3.90;;;;;;;16.83;100.00;95932.56;4982420;28;20030;-67
2023/09/17 07:36:10;;;;;;;5.90;4.20;;;;;;;16.94;100.00;95941.16;4985308;28;20482;-67
2023/09/17 07:38:36;;;;;;;9.80;3.72;;;;;;;16.99;100.00;95960.09;4989942;28;20041;-67
2023/09/17 07:41:02;;;;;;;11.48;4.60;;;;;;;17.10;100.00;95967.66;4989358;28;20554;-67
2023/09/17 07:43:28;;;;;;;9.85;3.50;;;;;;;17.34;100.00;95973.81;4984754;28;20381;-67
2023/09/17 07:45:53;;;;;;;7.20;3.70;;;;;;;17.54;100.00;95994.63;4990980;28;20050;-68
2023/09/17 07:48:20;;;;;;;6.90;3.45;;;;;;;17.60;100.00;95996.59;4991640;28;20054;-68
2023/09/17 07:50:57;;;;;;;9.98;3.58;;;;;;;17.54;100.00;96013.25;4991557;28;20055;-68
2023/09/17 07:53:24;;;;;;;11.02;3.67;;;;;;;17.55;100.00;96033.53;4992859;28;20027;-69
2023/09/17 07:55:52;;;;;;;7.32;3.72;;;;;;;17.66;100.00;96029.63;4993520;28;20026;-68
2023/09/17 07:58:18;;;;;;;6.15;3.38;;;;;;;17.89;100.00;96034.94;4990709;28;20053;-68
2023/09/17 08:00:47;;;;;;;8.00;3.35;;;;;;;18.12;100.00;96040.25;4988256;28;20034;-68
2023/09/17 08:03:13;;;;;;;9.77;3.53;;;;;;;18.28;100.00;96035.78;4990528;28;20025;-68
2023/09/17 08:05:39;;;;;;;9.40;3.50;;;;;;;18.41;100.00;96044.00;4993611;28;20037;-68
2023/09/17 08:08:05;;;;;;;13.18;3.75;;;;;;;18.64;100.00;96040.41;5048316;28;20023;-68
2023/09/17 08:10:31;;;;;;;11.80;3.47;;;;;;;18.83;100.00;96041.69;4984509;28;20019;-68
2023/09/17 08:12:56;;;;;;;6.53;3.25;;;;;;;19.05;100.00;96055.13;4982978;28;20060;-68
2023/09/17 08:15:22;;;;;;;6.85;3.42;;;;;;;19.23;100.00;96056.56;4990188;28;20052;-69
2023/09/17 08:17:47;;;;;;;10.77;3.78;;;;;;;19.36;100.00;96061.22;4991065;28;20034;-68
2023/09/17 08:20:13;;;;;;;5.60;3.10;;;;;;;19.45;100.00;96047.56;4988960;28;20039;-69
2023/09/17 08:22:38;;;;;;;6.45;3.20;;;;;;;19.64;100.00;96028.44;4986975;28;20046;-69
2023/09/17 08:25:06;;;;;;;7.50;3.30;;;;;;;19.86;100.00;96026.59;4983607;28;20034;-68
2023/09/17 08:27:31;;;;;;;13.25;3.53;;;;;;;19.87;100.00;96049.59;4989609;28;20034;-68
2023/09/17 08:29:59;;;;;;;11.35;3.53;;;;;;;19.92;100.00;96049.06;4987369;28;20023;-71
2023/09/17 08:32:25;;;;;;;11.35;3.78;;;;;;;19.78;100.00;96056.94;4981191;28;20031;-68
2023/09/17 08:34:50;;;;;;;7.43;2.95;;;;;;;19.97;100.00;96057.34;4984738;28;20443;-68
2023/09/17 08:37:17;;;;;;;7.40;3.10;;;;;;;20.11;100.00;96052.91;4990638;28;20661;-69
2023/09/17 08:39:42;;;;;;;8.15;3.45;;;;;;;20.22;100.00;96056.91;4988618;28;20045;-68
2023/09/17 08:42:08;;;;;;;12.15;3.30;;;;;;;20.30;100.00;96051.41;4981948;28;20026;-68
2023/09/17 08:44:36;;;;;;;5.60;3.28;;;;;;;20.42;100.00;96065.06;4987135;28;20050;-68
2023/09/17 08:47:02;;;;;;;6.32;2.70;;;;;;;20.46;100.00;96067.16;4990493;28;20033;-66
2023/09/17 08:49:28;;;;;;;10.00;3.20;;;;;;;20.57;100.00;96062.31;4988299;28;20073;-68
2023/09/17 08:51:56;;;;;;;6.93;3.67;;;;;;;20.66;100.00;96065.63;4992295;28;20034;-67
2023/09/17 08:54:28;;;;;;;8.30;3.78;;;;;;;20.57;100.00;96051.63;4986807;28;20026;-68
2023/09/17 08:56:56;;;;;;;8.07;3.28;;;;;;;20.58;100.00;96046.06;4979519;28;20033;-67
2023/09/17 08:59:29;;;;;;;9.20;3.47;;;;;;;20.71;100.00;96055.19;4978349;28;20027;-68
2023/09/17 09:01:56;;;;;;;8.13;2.97;;;;;;;20.73;100.00;96048.59;4984714;28;20029;-67
2023/09/17 09:04:23;;;;;;;10.30;3.28;;;;;;;20.73;100.00;96045.13;4988673;28;20015;-68
2023/09/17 09:06:50;;;;;;;7.32;3.03;;;;;;;20.75;100.00;96051.09;4991704;28;20025;-67
2023/09/17 09:09:16;;;;;;;9.23;3.33;;;;;;;20.76;100.00;96063.44;4993915;28;20018;-69
2023/09/17 09:11:42;;;;;;;8.70;2.90;;;;;;;20.83;100.00;96053.63;4990783;28;20023;-69
2023/09/17 09:14:08;;;;;;;11.48;3.55;;;;;;;20.89;100.00;96044.81;4988981;28;20026;-68
2023/09/17 09:16:36;;;;;;;10.60;3.50;;;;;;;21.14;100.00;96044.31;4990377;28;20033;-68
2023/09/17 09:19:02;;;;;;;10.90;3.22;;;;;;;21.07;100.00;96037.28;4982994;28;20023;-68
2023/09/17 09:21:31;;;;;;;6.82;3.22;;;;;;;21.17;100.00;96041.22;4981635;28;20121;-69
2023/09/17 09:23:59;;;;;;;10.95;3.22;;;;;;;21.12;100.00;96016.91;4989276;28;20030;-68
2023/09/17 09:26:36;;;;;;;9.10;3.05;;;;;;;21.26;100.00;96027.66;4985247;28;20022;-69
2023/09/17 09:29:03;;;;;;;7.60;3.17;;;;;;;21.34;100.00;96014.09;4991458;28;20209;-69
2023/09/17 09:31:29;;;;;;;11.55;2.90;;;;;;;21.35;100.00;96014.91;4991658;28;20018;-69
2023/09/17 09:34:01;;;;;;;7.72;3.30;;;;;;;21.45;100.00;96018.84;4987633;28;20660;-69
2023/09/17 09:36:28;;;;;;;11.07;3.38;;;;;;;21.45;100.00;96010.81;4988609;28;20033;-69
2023/09/17 09:38:57;;;;;;;6.57;3.17;;;;;;;21.52;100.00;96012.69;4980356;28;20062;-69
2023/09/17 09:41:29;;;;;;;10.68;3.08;;;;;;;21.66;100.00;96001.00;4986581;28;20030;-69
2023/09/17 09:43:56;;;;;;;5.57;2.85;;;;;;;21.61;100.00;95987.34;4973553;28;20027;-69
2023/09/17 09:46:24;;;;;;;11.60;3.10;;;;;;;21.66;100.00;95984.06;4985625;28;20023;-69
2023/09/17 09:48:51;;;;;;;8.05;3.05;;;;;;;21.74;100.00;95990.06;4974340;28;20019;-69
2023/09/17 09:51:18;;;;;;;6.13;3.00;;;;;;;21.78;100.00;95982.44;4985811;28;20398;-69
2023/09/17 09:53:44;;;;;;;6.10;2.95;;;;;;;21.90;100.00;95963.91;4978611;28;20515;-69
2023/09/17 09:56:11;;;;;;;8.45;3.08;;;;;;;21.96;100.00;95968.41;4984377;28;20036;-69
2023/09/17 09:58:39;;;;;;;10.38;3.20;;;;;;;21.94;100.00;95980.41;4979829;28;20042;-67
2023/09/17 10:01:05;;;;;;;8.48;3.45;;;;;;;22.02;100.00;95983.69;4979972;28;20038;-69
2023/09/17 10:03:31;;;;;;;8.32;3.13;;;;;;;22.24;100.00;95986.16;4977789;28;20076;-70
2023/09/17 10:06:07;;;;;;;8.20;3.10;;;;;;;22.30;100.00;95969.22;4978550;28;20030;-71
2023/09/17 10:08:39;;;;;;;7.15;3.03;;;;;;;22.37;100.00;95979.94;4983018;28;20038;-70
2023/09/17 10:11:08;;;;;;;5.03;2.90;;;;;;;22.43;100.00;95976.41;4988718;28;20023;-70
2023/09/17 10:13:33;;;;;;;6.75;2.85;;;;;;;22.52;100.00;95974.34;5033014;28;20090;-70
2023/09/17 10:16:01;;;;;;;8.95;3.13;;;;;;;22.71;100.00;95975.31;4986381;28;20569;-71
2023/09/17 10:18:29;;;;;;;9.30;3.67;;;;;;;22.71;100.00;95963.75;4975651;28;20085;-70
2023/09/17 10:20:55;;;;;;;12.07;2.35;;;;;;;22.84;100.00;95952.97;4987050;28;20018;-71
2023/09/17 10:23:22;;;;;;;8.48;2.97;;;;;;;23.01;100.00;95945.25;4990613;28;20026;-69
2023/09/17 10:25:48;;;;;;;4.90;2.63;;;;;;;23.11;100.00;95936.75;4986996;28;20521;-68
2023/09/17 10:28:15;;;;;;;9.25;2.60;;;;;;;23.08;100.00;95934.47;4991863;28;20014;-69
2023/09/17 10:30:43;;;;;;;7.13;2.53;;;;;;;23.23;100.00;95925.28;4984947;28;20084;-67
2023/09/17 10:33:11;;;;;;;9.38;3.05;;;;;;;23.32;100.00;95940.13;4984513;28;20049;-68
2023/09/17 10:35:38;;;;;;;8.77;2.92;;;;;;;23.48;100.00;95940.66;4981698;28;20064;-68
2023/09/17 10:38:06;;;;;;;6.22;2.53;;;;;;;23.81;100.00;95940.41;4979934;28;20283;-67
2023/09/17 10:40:34;;;;;;;7.97;2.88;;;;;;;24.10;100.00;95932.75;4988574;28;20499;-68
2023/09/17 10:43:01;;;;;;;6.88;2.45;;;;;;;24.31;100.00;95923.41;4986554;28;20106;-66
2023/09/17 10:45:30;;;;;;;5.65;2.60;;;;;;;24.42;100.00;95919.16;4987760;28;20053;-70
2023/09/17 10:47:59;;;;;;;7.65;2.85;;;;;;;24.32;100.00;95913.47;4988670;28;20026;-68
2023/09/17 10:50:27;;;;;;;6.45;2.95;;;;;;;24.41;100.00;95898.66;4990270;28;20019;-67
2023/09/17 10:52:53;;;;;;;10.73;3.00;;;;;;;24.54;100.00;95884.22;4992930;28;20018;-68
2023/09/17 10:55:22;;;;;;;8.88;2.78;;;;;;;24.66;100.00;95886.97;4993973;28;20037;-68
2023/09/17 10:58:01;;;;;;;7.85;2.53;;;;;;;24.82;100.00;95884.75;4991142;28;20039;-67
2023/09/17 11:00:31;;;;;;;7.50;2.92;;;;;;;24.86;100.00;95884.03;4985253;28;20114;-67
2023/09/17 11:03:00;;;;;;;9.02;2.63;;;;;;;25.26;100.00;95879.13;4992675;28;20022;-68
2023/09/17 11:05:28;;;;;;;16.38;3.05;;;;;;;25.46;100.00;95863.47;4982187;28;20065;-67
2023/09/17 11:08:01;;;;;;;9.25;2.85;;;;;;;25.59;100.00;95861.66;4987200;28;20578;-67
2023/09/17 11:10:28;;;;;;;11.25;3.22;;;;;;;25.85;100.00;95829.91;4991575;28;20018;-68
2023/09/17 11:12:53;;;;;;;14.30;3.03;;;;;;;26.03;100.00;95837.00;4986544;28;20061;-68
2023/09/17 11:15:19;;;;;;;12.10;3.42;;;;;;;26.19;100.00;95843.56;4992520;28;20061;-68
2023/09/17 11:17:47;;;;;;;9.38;3.50;;;;;;;26.30;100.00;95829.25;4984307;28;20030;-69
2023/09/17 11:20:16;;;;;;;9.70;2.55;;;;;;;26.32;100.00;95847.91;4987673;28;20050;-66
2023/09/17 11:22:45;;;;;;;6.60;2.88;;;;;;;26.50;100.00;95840.69;4991309;28;20573;-66